ADDS METAR Data INFO
IDs: Format: Raw Decoded Include TAF

Data at: 1900 UTC 22 Sep 2017

METAR for:PADQ (Kodiak Arpt, AK, US)
Text:PADQ 221853Z 18010KT 10SM BKN100 13/09 A2961 RMK AO2 SLP025 T01330094
Temperature: 13.3°C ( 56°F)
Dewpoint: 9.4°C ( 49°F) [RH = 77%]
Pressure (altimeter):29.61 inches Hg (1002.8 mb) [Sea level pressure: 1002.5 mb]
Winds:from the S (180 degrees) at 12 MPH (10 knots; 5.1 m/s)
Visibility:10 or more sm (16+ km)
Ceiling:10000 feet AGL
Clouds: broken clouds at 10000 feet AGL
Text:PADQ 221753Z 20011KT 10SM FEW025 SCT032 BKN110 13/09 A2960 RMK AO2 SLP022 T01280094 10128 20117 57001
Temperature: 12.8°C ( 55°F)
Dewpoint: 9.4°C ( 49°F) [RH = 80%]
Pressure (altimeter):29.60 inches Hg (1002.5 mb) [Sea level pressure: 1002.2 mb]
Winds:from the SSW (200 degrees) at 13 MPH (11 knots; 5.7 m/s)
Visibility:10 or more sm (16+ km)
Ceiling:11000 feet AGL
Clouds: few clouds at 2500 feet AGL, scattered clouds at 3200 feet AGL, broken clouds at 11000 feet AGL
Text:PADQ 221653Z 23005KT 10SM FEW021 BKN100 13/09 A2960 RMK AO2 SLP023 T01280089
Temperature: 12.8°C ( 55°F)
Dewpoint: 8.9°C ( 48°F) [RH = 77%]
Pressure (altimeter):29.60 inches Hg (1002.5 mb) [Sea level pressure: 1002.3 mb]
Winds:from the SW (230 degrees) at 6 MPH (5 knots; 2.6 m/s)
Visibility:10 or more sm (16+ km)
Ceiling:10000 feet AGL
Clouds: few clouds at 2100 feet AGL, broken clouds at 10000 feet AGL
Text:PADQ 221553Z 24006KT 10SM SCT024 12/09 A2960 RMK AO2 SLP022 T01170089
Temperature: 11.7°C ( 53°F)
Dewpoint: 8.9°C ( 48°F) [RH = 83%]
Pressure (altimeter):29.60 inches Hg (1002.5 mb) [Sea level pressure: 1002.2 mb]
Winds:from the WSW (240 degrees) at 7 MPH (6 knots; 3.1 m/s)
Visibility:10 or more sm (16+ km)
Ceiling:at least 12,000 feet AGL
Clouds: scattered clouds at 2400 feet AGL
Text:PADQ 221453Z 21008KT 10SM SCT075 12/09 A2960 RMK AO2 SLP023 T01220089 55002
Temperature: 12.2°C ( 54°F)
Dewpoint: 8.9°C ( 48°F) [RH = 80%]
Pressure (altimeter):29.60 inches Hg (1002.5 mb) [Sea level pressure: 1002.3 mb]
Winds:from the SSW (210 degrees) at 9 MPH (8 knots; 4.1 m/s)
Visibility:10 or more sm (16+ km)
Ceiling:at least 12,000 feet AGL
Clouds: scattered clouds at 7500 feet AGL
Text:PADQ 221353Z AUTO VRB05KT 10SM OVC080 12/09 A2959 RMK AO2 SLP021 T01220094 TSNO
Temperature: 12.2°C ( 54°F)
Dewpoint: 9.4°C ( 49°F) [RH = 83%]
Pressure (altimeter):29.59 inches Hg (1002.1 mb) [Sea level pressure: 1002.1 mb]
Winds:variable direction winds at 6 MPH (5 knots; 2.6 m/s)
Visibility:10 or more sm (16+ km)
Ceiling:8000 feet AGL
Clouds: overcast cloud deck at 8000 feet AGL
QC Flag:automated observation with no human augmentation

TAF for:PADQ (Kodiak Arpt, AK, US) issued at 1740 UTC 22 Sep 2017
Text:PADQ 221740Z 2218/2318 23006KT P6SM FEW020 BKN100
Forecast period:1800 to 2100 UTC 22 September 2017
Forecast type:FROM: standard forecast or significant change
Winds:from the SW (230 degrees) at 7 MPH (6 knots; 3.1 m/s)
Visibility:6 or more sm (10+ km)
Ceiling:10000 feet AGL
Clouds: few clouds at 2000 feet AGL, broken clouds at 10000 feet AGL
Text:FM222100 19012KT P6SM SCT030 BKN045
Forecast period:2100 UTC 22 September 2017 to 0300 UTC 23 September 2017
Forecast type:FROM: standard forecast or significant change
Winds:from the S (190 degrees) at 14 MPH (12 knots; 6.2 m/s)
Visibility:6 or more sm (10+ km)
Ceiling:4500 feet AGL
Clouds: scattered clouds at 3000 feet AGL, broken clouds at 4500 feet AGL
Text:FM230300 15007KT P6SM VCSH SCT020 BKN030
Forecast period:0300 to 0900 UTC 23 September 2017
Forecast type:FROM: standard forecast or significant change
Winds:from the SSE (150 degrees) at 8 MPH (7 knots; 3.6 m/s)
Visibility:6 or more sm (10+ km)
Ceiling:3000 feet AGL
Clouds: scattered clouds at 2000 feet AGL, broken clouds at 3000 feet AGL
Weather:VCSH (showers in vicinity)
Text:FM230900 11005KT 5SM -RA OVC015
Forecast period:0900 to 1800 UTC 23 September 2017
Forecast type:FROM: standard forecast or significant change
Winds:from the ESE (110 degrees) at 6 MPH (5 knots; 2.6 m/s)
Visibility: 5 sm ( 8 km)
Ceiling:1500 feet AGL
Clouds: overcast cloud deck at 1500 feet AGL
Weather:-RA (light rain)